首页
METAR-TAF:

METAR-TAF

机场 :

Tapachula, 墨西哥

纬度: 14-47N, 经度: 092-23W, 海拔: 29米

当前天气观测

该预报发布于45分钟前的07:41 UTC
静风
温度 23°C
湿度 94%
气压 1012 hPa
能見度: 12.9公里
少量云层高于3000英尺
散云层高于12000英尺

METAR: MMTP 310741Z 00000KT 8SM FEW030 SCT120 23/22 A2987 RMK 8/460 HZY

时间: 02:26 (08:26 UTC)

预报

该预报发布于3小时和20分钟前的05:06 UTC
预报有效从31日的 06点(UTC)到 01日的 12点(UTC)
风速节,风向
能見度: 10公里
散云层高于3000英尺
散云层高于12000英尺
从 31日的 1800点(UTC)
风速14节,风向西转西南
能見度: 10公里
散云层高于3000英尺
多云层高于10000英尺
多云层高于25000英尺
从 01日的 0600点(UTC)
风速节,风向
能見度: 10公里
散云层高于3000英尺
散云层高于10000英尺

TAF: MMTP 310506Z 3106/0112 00000KT P6SM SCT030 SCT120 FM311800 24014KT P6SM SCT030 BKN100 BKN250 FM010600 00000KT P6SM SCT030 SCT100

超过4000个机场的气象观测和天气预报(METAR&TAF报告)。

可查询的气象台以黄色和红色小点在地图上表示。

将鼠标移到小点上方,可查看气象台名称。

然后点击查看天气观测和预报。

如需切换地图:点击带黑十字的绿色按钮放大地图;点击带横线的绿色按钮缩小地图;或者点击绿色箭头查看邻近地区的地图。


METAR-TAF: